This demonstration page uses our WeatherBlox Daily Observations layout. Learn more.

38.89511, -77.03637

Hourly Observations for August 29, 2015

Temp ( °F °C ) Dew Point ( °F °C ) Humidity (%) Winds ( mph kmh ) Pressure ( in mb ) Visibility ( mi km ) Precip ( " mm )
12:52 am 00:52 Mostly Cloudy 72 22.2 60 15.6 66 66 S 3 6 30.21 1023 10 16.0934 0 0
1:52 am 01:52 Mostly Cloudy 72 22.2 61 16.1 68 68 SSE 3 6 30.2 1023 10 16.0934 0 0
2:52 am 02:52 Mostly Cloudy 71 21.7 62 16.7 73 73 SSE 6 9 30.2 1023 10 16.0934 0 0
3:52 am 03:52 Mostly Cloudy 70 21.1 62 16.7 76 76 S 5 7 30.19 1023 10 16.0934 0 0
4:52 am 04:52 Mostly Cloudy 69 20.6 61 16.1 76 76 SW 5 7 30.2 1023 10 16.0934 0 0
5:52 am 05:52 Mostly Clear 67 19.4 61 16.1 81 81 SSW 6 9 30.19 1022 10 16.0934 0 0
6:52 am 06:52 Mostly Cloudy 68 20 62 16.7 81 81 SW 5 7 30.21 1023 10 16.0934 0 0
7:52 am 07:52 Mostly Cloudy 71 21.7 63 17.2 76 76 SSW 7 11 30.22 1023 10 16.0934 0 0
8:52 am 08:52 Partly Cloudy 74 23.3 63 17.2 69 69 S 9 15 30.22 1023 10 16.0934 0 0
9:52 am 09:52 Mostly Cloudy 78 25.6 64 17.8 62 62 S 10 17 30.22 1023 10 16.0934 0 0
10:52 am 10:52 Mostly Cloudy 81 27.2 61 16.1 51 51 S 13 20 30.22 1023 10 16.0934 0 0
11:52 am 11:52 Partly Cloudy 84 28.9 60 15.6 44 44 SW 14 22 30.21 1023 10 16.0934 0 0
12:52 pm 12:52 Mostly Cloudy 85 29.4 62 16.7 46 46 S 13 20 30.18 1022 10 16.0934 0 0
1:52 pm 13:52 Mostly Cloudy 87 30.6 62 16.7 43 43 S 13 20 30.16 1021 10 16.0934 0 0
2:52 pm 14:52 Mostly Cloudy 87 30.6 62 16.7 43 43 S 9 15 30.14 1021 10 16.0934 0 0
3:52 pm 15:52 Mostly Cloudy 88 31.1 62 16.7 42 42 S 8 13 30.12 1020 10 16.0934 0 0
4:52 pm 16:52 Mostly Cloudy 88 31.1 64 17.8 45 45 S 12 19 30.11 1020 10 16.0934 0 0
5:52 pm 17:52 Mostly Cloudy 85 29.4 65 18.3 51 51 S 14 22 30.1 1019 10 16.0934 0 0
6:52 pm 18:52 Mostly Cloudy 83 28.3 65 18.3 55 55 S 10 17 30.1 1019 10 16.0934 0 0
7:52 pm 19:52 Cloudy 81 27.2 66 18.9 61 61 S 12 19 30.1 1019 10 16.0934 0 0
8:52 pm 20:52 Cloudy 79 26.1 65 18.3 62 62 S 10 17 30.11 1020 10 16.0934 0 0
9:52 pm 21:52 Mostly Cloudy 77 25 66 18.9 69 69 S 14 22 30.12 1020 10 16.0934 0 0
10:52 pm 22:52 Mostly Cloudy 75 23.9 66 18.9 74 74 SSW 10 17 30.13 1020 10 16.0934 0 0
11:52 pm 23:52 Mostly Cloudy 74 23.3 64 17.8 71 71 S 14 22 30.13 1020 10 16.0934 0 0

Powered by AerisWeather